createdAt,value
2019-01-24T00:02:10.460Z,0.90
2019-01-24T00:04:42.676Z,0.90
2019-01-24T00:07:13.685Z,0.90
2019-01-24T00:09:44.125Z,0.80
2019-01-24T00:12:14.506Z,0.80
2019-01-24T00:14:44.557Z,0.80
2019-01-24T00:17:14.786Z,0.70
2019-01-24T00:19:44.872Z,0.60
2019-01-24T00:22:14.818Z,0.60
2019-01-24T00:24:44.731Z,0.60
2019-01-24T00:27:14.694Z,0.60
2019-01-24T00:29:45.249Z,0.60
2019-01-24T00:32:15.304Z,0.60
2019-01-24T00:34:45.270Z,0.70
2019-01-24T00:37:15.638Z,0.70
2019-01-24T00:39:45.954Z,0.70
2019-01-24T00:42:15.933Z,0.70
2019-01-24T00:44:46.175Z,0.70
2019-01-24T00:47:36.474Z,0.70
2019-01-24T00:50:07.903Z,0.70
2019-01-24T00:52:38.909Z,0.70
2019-01-24T00:55:10.581Z,0.60
2019-01-24T00:57:40.655Z,0.60
2019-01-24T01:00:16.689Z,0.60
2019-01-24T01:02:47.023Z,0.60
2019-01-24T01:05:19.460Z,0.60
2019-01-24T01:07:49.553Z,0.70
2019-01-24T01:10:20.806Z,0.70
2019-01-24T01:12:50.828Z,0.80
2019-01-24T01:15:20.831Z,0.80
2019-01-24T01:17:50.823Z,0.80
2019-01-24T01:20:22.351Z,0.90
2019-01-24T01:22:52.247Z,0.90
2019-01-24T01:25:22.710Z,0.90
2019-01-24T01:27:52.695Z,1.00
2019-01-24T01:30:24.021Z,1.00
2019-01-24T01:32:54.259Z,1.00
2019-01-24T01:35:24.284Z,1.00
2019-01-24T01:37:54.331Z,1.10
2019-01-24T01:40:24.846Z,1.10
2019-01-24T01:42:55.000Z,1.10
2019-01-24T01:45:25.069Z,1.10
2019-01-24T01:47:55.129Z,1.10
2019-01-24T01:50:25.731Z,1.10
2019-01-24T01:52:57.024Z,1.10
2019-01-24T01:55:27.864Z,1.10
2019-01-24T01:57:57.836Z,1.10
2019-01-24T02:00:28.191Z,1.10
2019-01-24T02:02:58.253Z,1.00
2019-01-24T02:05:28.265Z,1.00
2019-01-24T02:07:58.741Z,1.00
2019-01-24T02:10:29.332Z,1.00
2019-01-24T02:12:59.752Z,1.00
2019-01-24T02:15:29.732Z,1.00
2019-01-24T02:17:59.914Z,1.00
2019-01-24T02:20:29.773Z,1.10
2019-01-24T02:22:59.814Z,1.10
2019-01-24T02:25:29.722Z,1.10
2019-01-24T02:27:59.529Z,1.10
2019-01-24T02:30:30.104Z,1.10
2019-01-24T02:33:00.382Z,1.10
2019-01-24T02:35:30.309Z,1.10
2019-01-24T02:38:00.260Z,1.10
2019-01-24T02:40:30.070Z,1.10
2019-01-24T02:43:00.044Z,1.10
2019-01-24T02:45:32.176Z,1.20
2019-01-24T02:48:02.107Z,1.10
2019-01-24T02:50:32.188Z,1.10
2019-01-24T02:53:02.200Z,1.10
2019-01-24T02:55:32.654Z,1.10
2019-01-24T02:58:02.561Z,1.10
2019-01-24T03:00:32.629Z,1.10
2019-01-24T03:03:02.600Z,1.10
2019-01-24T03:05:32.486Z,1.10
2019-01-24T03:08:02.582Z,1.10
2019-01-24T03:10:32.538Z,1.10
2019-01-24T03:13:02.550Z,1.10
2019-01-24T03:15:32.648Z,1.10
2019-01-24T03:18:02.614Z,1.10
2019-01-24T03:20:32.587Z,1.10
2019-01-24T03:23:02.522Z,1.10
2019-01-24T03:25:32.605Z,1.10
2019-01-24T03:28:02.594Z,1.10
2019-01-24T03:30:32.625Z,1.10
2019-01-24T03:33:03.070Z,1.10
2019-01-24T03:35:33.034Z,1.00
2019-01-24T03:38:03.080Z,1.00
2019-01-24T03:40:33.323Z,1.00
2019-01-24T03:43:03.490Z,1.00
2019-01-24T03:45:33.555Z,1.00
2019-01-24T03:48:03.442Z,1.00
2019-01-24T03:50:33.607Z,1.00
2019-01-24T03:53:06.611Z,1.00
2019-01-24T03:55:36.483Z,1.00
2019-01-24T03:58:06.572Z,1.00
2019-01-24T04:00:36.983Z,0.90
2019-01-24T04:03:06.981Z,0.90
2019-01-24T04:05:37.693Z,0.90
2019-01-24T04:08:07.600Z,0.90
2019-01-24T04:10:38.021Z,0.90
2019-01-24T04:13:08.083Z,0.90
2019-01-24T04:15:38.018Z,0.90
2019-01-24T04:18:08.109Z,0.90
2019-01-24T04:20:38.207Z,0.90
2019-01-24T04:23:08.155Z,0.90
2019-01-24T04:25:38.415Z,0.90
2019-01-24T04:28:08.614Z,0.90
2019-01-24T04:30:38.960Z,0.90
2019-01-24T04:33:08.882Z,0.90
2019-01-24T04:35:38.901Z,0.90
2019-01-24T04:38:08.648Z,0.90
2019-01-24T04:40:38.630Z,0.90
2019-01-24T04:43:08.677Z,0.90
2019-01-24T04:45:38.720Z,0.90
2019-01-24T04:48:08.665Z,0.90
2019-01-24T04:50:38.818Z,0.90
2019-01-24T04:53:08.755Z,0.90
2019-01-24T04:55:39.040Z,0.90
2019-01-24T04:58:09.469Z,0.90
2019-01-24T05:00:39.894Z,0.90
2019-01-24T05:03:09.837Z,0.90
2019-01-24T05:05:40.736Z,0.90
2019-01-24T05:08:10.635Z,0.90
2019-01-24T05:10:40.569Z,0.90
2019-01-24T05:13:10.721Z,0.90
2019-01-24T05:15:40.622Z,0.90
2019-01-24T05:18:10.522Z,1.00
2019-01-24T05:20:40.476Z,1.00
2019-01-24T05:23:10.529Z,1.00
2019-01-24T05:25:40.523Z,1.00
2019-01-24T05:28:10.395Z,1.00
2019-01-24T05:30:40.355Z,1.10
2019-01-24T05:33:10.449Z,1.10
2019-01-24T05:35:40.631Z,1.10
2019-01-24T05:38:10.610Z,1.10
2019-01-24T05:40:40.593Z,1.10
2019-01-24T05:43:10.680Z,1.10
2019-01-24T05:45:40.616Z,1.10
2019-01-24T05:48:11.532Z,1.10
2019-01-24T05:50:41.559Z,1.10
2019-01-24T05:53:12.989Z,1.10
2019-01-24T05:55:43.406Z,1.10
2019-01-24T05:58:13.475Z,1.10
2019-01-24T06:00:44.752Z,1.10
2019-01-24T06:03:14.837Z,1.10
2019-01-24T06:05:45.339Z,1.10
2019-01-24T06:08:16.294Z,1.10
2019-01-24T06:10:46.606Z,1.10
2019-01-24T06:13:16.576Z,1.10
2019-01-24T06:15:46.516Z,1.10
2019-01-24T06:18:16.586Z,1.10
2019-01-24T06:20:46.683Z,1.00
2019-01-24T06:23:16.975Z,1.00
2019-01-24T06:25:46.982Z,1.00
2019-01-24T06:28:16.997Z,1.00
2019-01-24T06:30:46.886Z,1.00
2019-01-24T06:33:16.805Z,1.00
2019-01-24T06:35:48.834Z,1.00
2019-01-24T06:38:19.008Z,1.00
2019-01-24T06:40:49.283Z,1.00
2019-01-24T06:43:19.275Z,1.00
2019-01-24T06:45:49.251Z,1.00
2019-01-24T06:48:19.099Z,1.00
2019-01-24T06:50:49.148Z,1.00
2019-01-24T06:53:19.141Z,1.00
2019-01-24T06:55:49.165Z,1.00
2019-01-24T06:58:19.180Z,1.00
2019-01-24T07:00:49.181Z,1.00
2019-01-24T07:03:19.294Z,1.00
2019-01-24T07:05:55.215Z,1.00
2019-01-24T07:08:21.049Z,1.10
2019-01-24T07:10:51.026Z,1.10
2019-01-24T07:13:21.147Z,1.10
2019-01-24T07:15:51.657Z,1.10
2019-01-24T07:18:23.889Z,1.10
2019-01-24T07:20:53.836Z,1.10
2019-01-24T07:23:23.745Z,1.10
2019-01-24T07:25:53.727Z,1.10
2019-01-24T07:28:23.645Z,1.10
2019-01-24T07:30:53.741Z,1.20
2019-01-24T07:33:23.634Z,1.20
2019-01-24T07:36:02.152Z,1.20
2019-01-24T07:38:28.388Z,1.20
2019-01-24T07:40:58.389Z,1.20
2019-01-24T07:43:28.638Z,1.20
2019-01-24T07:45:58.972Z,1.30
2019-01-24T07:48:30.135Z,1.30
2019-01-24T07:51:00.354Z,1.30
2019-01-24T07:53:31.669Z,1.30
2019-01-24T07:56:02.100Z,1.30
2019-01-24T07:58:32.304Z,1.30
2019-01-24T08:01:02.397Z,1.30
2019-01-24T08:03:32.627Z,1.30
2019-01-24T08:06:08.867Z,1.30
2019-01-24T08:08:34.508Z,1.30
2019-01-24T08:11:04.498Z,1.30
2019-01-24T08:13:34.498Z,1.30
2019-01-24T08:16:04.659Z,1.30
2019-01-24T08:18:34.690Z,1.30
2019-01-24T08:21:05.100Z,1.30
2019-01-24T08:23:35.076Z,1.30
2019-01-24T08:26:05.225Z,1.30
2019-01-24T08:28:35.269Z,1.30
2019-01-24T08:31:05.438Z,1.30
2019-01-24T08:33:35.463Z,1.40
2019-01-24T08:36:05.458Z,1.40
2019-01-24T08:38:35.449Z,1.40
2019-01-24T08:41:05.484Z,1.40
2019-01-24T08:43:35.505Z,1.40
2019-01-24T08:46:05.483Z,1.50
2019-01-24T08:48:35.871Z,1.50
2019-01-24T08:51:06.194Z,1.50
2019-01-24T08:53:37.162Z,1.60
2019-01-24T08:56:07.258Z,1.60
2019-01-24T08:58:37.294Z,1.60
2019-01-24T09:01:07.338Z,1.60
2019-01-24T09:03:37.692Z,1.70
2019-01-24T09:06:07.530Z,1.70
2019-01-24T09:08:37.534Z,1.70
2019-01-24T09:11:07.558Z,1.80
2019-01-24T09:13:37.631Z,1.80
2019-01-24T09:16:07.731Z,1.90
2019-01-24T09:18:37.769Z,1.90
2019-01-24T09:21:07.776Z,2.00
2019-01-24T09:23:38.550Z,2.00
2019-01-24T09:26:08.871Z,2.00
2019-01-24T09:28:39.012Z,2.10
2019-01-24T09:31:09.491Z,2.10
2019-01-24T09:33:39.508Z,2.10
2019-01-24T09:36:10.051Z,2.20
2019-01-24T09:38:40.258Z,2.20
2019-01-24T09:41:10.250Z,2.20
2019-01-24T09:43:40.426Z,2.20
2019-01-24T09:46:10.458Z,2.30
2019-01-24T09:48:40.670Z,2.30
2019-01-24T09:51:10.727Z,2.40
2019-01-24T09:53:41.127Z,2.40
2019-01-24T09:56:11.137Z,2.40
2019-01-24T09:58:41.235Z,2.40
2019-01-24T10:01:11.307Z,2.50
2019-01-24T10:03:41.388Z,2.50
2019-01-24T10:06:13.324Z,2.60
2019-01-24T10:08:43.376Z,2.70
2019-01-24T10:11:13.672Z,2.70
2019-01-24T10:13:46.845Z,2.70
2019-01-24T10:16:16.968Z,2.80
2019-01-24T10:18:47.203Z,2.80
2019-01-24T10:21:17.429Z,2.80
2019-01-24T10:23:47.989Z,2.80
2019-01-24T10:26:18.421Z,2.80
2019-01-24T10:28:48.611Z,2.80
2019-01-24T10:31:18.626Z,2.80
2019-01-24T10:33:48.586Z,2.80
2019-01-24T10:36:18.660Z,2.80
2019-01-24T10:38:48.904Z,2.90
2019-01-24T10:41:19.040Z,2.90
2019-01-24T10:43:49.419Z,2.90
2019-01-24T10:46:19.566Z,3.00
2019-01-24T10:48:49.560Z,3.00
2019-01-24T10:51:20.223Z,3.10
2019-01-24T10:53:50.300Z,3.10
2019-01-24T10:56:20.225Z,3.10
2019-01-24T10:58:50.329Z,3.10
2019-01-24T11:01:20.378Z,3.20
2019-01-24T11:03:51.317Z,3.20
2019-01-24T11:06:21.378Z,3.30
2019-01-24T11:08:51.447Z,3.40
2019-01-24T11:11:21.881Z,3.40
2019-01-24T11:13:51.908Z,3.50
2019-01-24T11:16:21.898Z,3.60
2019-01-24T11:18:52.029Z,3.60
2019-01-24T11:21:21.975Z,3.60
2019-01-24T11:23:52.091Z,3.70
2019-01-24T11:26:22.027Z,3.70
2019-01-24T11:28:52.002Z,3.80
2019-01-24T11:31:22.110Z,3.80
2019-01-24T11:33:52.462Z,3.80
2019-01-24T11:36:22.998Z,3.90
2019-01-24T11:38:53.664Z,3.90
2019-01-24T11:41:23.965Z,3.90
2019-01-24T11:43:54.330Z,3.90
2019-01-24T11:46:24.667Z,3.90
2019-01-24T11:48:55.306Z,3.90
2019-01-24T11:51:26.447Z,3.90
2019-01-24T11:53:56.605Z,3.90
2019-01-24T11:56:26.945Z,3.80
2019-01-24T11:58:57.018Z,3.80
2019-01-24T12:01:27.590Z,3.80
2019-01-24T12:03:57.636Z,3.70
2019-01-24T12:06:27.578Z,3.70
2019-01-24T12:08:58.361Z,3.60
2019-01-24T12:11:28.426Z,3.60
2019-01-24T12:13:58.418Z,3.60
2019-01-24T12:16:28.763Z,3.70
2019-01-24T12:18:58.943Z,3.70
2019-01-24T12:21:28.883Z,3.60
2019-01-24T12:24:00.104Z,3.60
2019-01-24T12:26:30.890Z,3.60
2019-01-24T12:29:01.275Z,3.60
2019-01-24T12:31:31.651Z,3.60
2019-01-24T12:34:01.632Z,3.70
2019-01-24T12:36:32.101Z,3.60
2019-01-24T12:39:02.205Z,3.70
2019-01-24T12:41:32.342Z,3.70
2019-01-24T12:44:02.444Z,3.60
2019-01-24T12:46:32.453Z,3.60
2019-01-24T12:49:02.766Z,3.60
2019-01-24T12:51:32.930Z,3.60
2019-01-24T12:54:03.126Z,3.60
2019-01-24T12:56:33.256Z,3.60
2019-01-24T12:59:03.503Z,3.60
2019-01-24T13:01:33.529Z,3.60
2019-01-24T13:04:03.966Z,3.60
2019-01-24T13:06:33.888Z,3.60
2019-01-24T13:09:05.907Z,3.70
2019-01-24T13:11:35.780Z,3.70
2019-01-24T13:14:05.956Z,3.70
2019-01-24T13:16:36.026Z,3.70
2019-01-24T13:19:06.374Z,3.70
2019-01-24T13:21:37.022Z,3.70
2019-01-24T13:24:07.214Z,3.70
2019-01-24T13:26:37.523Z,3.70
2019-01-24T13:29:08.431Z,3.70
2019-01-24T13:31:38.728Z,3.70
2019-01-24T13:34:09.546Z,3.70
2019-01-24T13:36:39.872Z,3.60
2019-01-24T13:39:11.999Z,3.60
2019-01-24T13:41:43.243Z,3.60
2019-01-24T13:44:13.307Z,3.60
2019-01-24T13:46:43.782Z,3.60
2019-01-24T13:49:13.786Z,3.60
2019-01-24T13:51:44.400Z,3.60
2019-01-24T13:54:14.549Z,3.60
2019-01-24T13:56:44.538Z,3.60
2019-01-24T13:59:14.633Z,3.60
2019-01-24T14:01:44.886Z,3.60
2019-01-24T14:04:18.757Z,3.50
2019-01-24T14:06:49.082Z,3.50
2019-01-24T14:09:18.999Z,3.60
2019-01-24T14:11:49.018Z,3.60
2019-01-24T14:14:19.157Z,3.50
2019-01-24T14:16:49.484Z,3.50
2019-01-24T14:19:20.632Z,3.50
2019-01-24T14:21:51.051Z,3.50
2019-01-24T14:24:21.381Z,3.50
2019-01-24T14:26:53.136Z,3.50
2019-01-24T14:29:23.128Z,3.50
2019-01-24T14:31:53.426Z,3.50
2019-01-24T14:34:32.914Z,3.50
2019-01-24T14:37:03.281Z,3.50
2019-01-24T14:39:33.315Z,3.50
2019-01-24T14:42:03.939Z,3.50
2019-01-24T14:44:34.099Z,3.50
2019-01-24T14:47:04.403Z,3.50
2019-01-24T14:49:34.231Z,3.50
2019-01-24T14:52:04.320Z,3.40
2019-01-24T14:54:34.314Z,3.40
2019-01-24T14:57:04.295Z,3.40
2019-01-24T14:59:34.793Z,3.40
2019-01-24T15:02:05.160Z,3.40
2019-01-24T15:04:35.317Z,3.40
2019-01-24T15:07:05.250Z,3.40
2019-01-24T15:09:35.558Z,3.40
2019-01-24T15:12:07.118Z,3.30
2019-01-24T15:14:37.100Z,3.30
2019-01-24T15:17:09.386Z,3.20
2019-01-24T15:19:39.332Z,3.20
2019-01-24T15:22:13.271Z,3.20
2019-01-24T15:24:49.060Z,3.20
2019-01-24T15:27:19.228Z,3.10
2019-01-24T15:29:49.362Z,3.10
2019-01-24T15:32:19.399Z,3.10
2019-01-24T15:34:49.838Z,3.10
2019-01-24T15:37:21.221Z,3.10
2019-01-24T15:39:52.316Z,3.10
2019-01-24T15:42:22.554Z,3.10
2019-01-24T15:44:52.460Z,3.00
2019-01-24T15:47:22.511Z,3.00
2019-01-24T15:49:52.578Z,3.00
2019-01-24T15:52:23.043Z,3.00
2019-01-24T15:54:53.041Z,3.00
2019-01-24T15:57:23.135Z,3.00
2019-01-24T15:59:53.262Z,3.00
2019-01-24T16:02:23.308Z,3.00
2019-01-24T16:04:53.199Z,3.00
2019-01-24T16:07:23.100Z,3.00
2019-01-24T16:09:53.126Z,3.00
2019-01-24T16:12:23.141Z,3.00
2019-01-24T16:14:53.594Z,3.00
2019-01-24T16:17:23.651Z,3.00
2019-01-24T16:19:53.843Z,2.90
2019-01-24T16:22:23.804Z,2.90
2019-01-24T16:24:53.900Z,2.90
2019-01-24T16:27:24.249Z,2.90
2019-01-24T16:29:54.415Z,2.90
2019-01-24T16:32:24.500Z,2.90
2019-01-24T16:34:54.971Z,3.00
2019-01-24T16:37:25.252Z,2.90
2019-01-24T16:39:55.263Z,2.90
2019-01-24T16:42:25.272Z,2.90
2019-01-24T16:44:55.161Z,2.90
2019-01-24T16:47:25.252Z,2.90
2019-01-24T16:50:01.518Z,2.90
2019-01-24T16:52:31.945Z,2.90
2019-01-24T16:55:02.474Z,2.90
2019-01-24T16:57:32.922Z,2.80
2019-01-24T17:00:02.891Z,2.80
2019-01-24T17:02:33.038Z,2.70
2019-01-24T17:05:03.361Z,2.70
2019-01-24T17:07:33.432Z,2.70
2019-01-24T17:10:03.606Z,2.70
2019-01-24T17:12:33.949Z,2.70
2019-01-24T17:15:04.090Z,2.70
2019-01-24T17:17:34.475Z,2.70
2019-01-24T17:20:05.699Z,2.70
2019-01-24T17:22:35.727Z,2.60
2019-01-24T17:25:07.030Z,2.60
2019-01-24T17:27:37.054Z,2.60
2019-01-24T17:30:09.218Z,2.60
2019-01-24T17:32:40.235Z,2.60
2019-01-24T17:35:10.266Z,2.60
2019-01-24T17:37:40.239Z,2.60
2019-01-24T17:40:13.835Z,2.60
2019-01-24T17:42:43.936Z,2.60
2019-01-24T17:45:14.365Z,2.60
2019-01-24T17:47:44.353Z,2.60
2019-01-24T17:50:20.748Z,2.60
2019-01-24T17:52:52.262Z,2.60
2019-01-24T17:55:39.483Z,2.60
2019-01-24T17:58:06.877Z,2.60
2019-01-24T18:00:39.219Z,2.70
2019-01-24T18:03:11.676Z,2.70
2019-01-24T18:05:53.444Z,2.70
2019-01-24T18:08:23.742Z,2.70
2019-01-24T18:10:54.443Z,2.80
2019-01-24T18:13:25.067Z,2.80
2019-01-24T18:15:55.115Z,2.80
2019-01-24T18:18:25.127Z,2.90
2019-01-24T18:20:55.077Z,2.80
2019-01-24T18:23:25.175Z,2.90
2019-01-24T18:25:55.097Z,2.90
2019-01-24T18:28:25.335Z,2.90
2019-01-24T18:30:55.290Z,2.90
2019-01-24T18:33:25.256Z,2.90
2019-01-24T18:35:55.238Z,2.90
2019-01-24T18:38:25.179Z,2.90
2019-01-24T18:40:55.235Z,2.90
2019-01-24T18:43:27.787Z,2.90
2019-01-24T18:46:02.421Z,2.90
2019-01-24T18:48:32.533Z,2.90
2019-01-24T18:51:02.761Z,2.90
2019-01-24T18:53:32.997Z,2.90
2019-01-24T18:56:04.371Z,2.90
2019-01-24T18:58:35.083Z,2.90
2019-01-24T19:01:06.284Z,2.90
2019-01-24T19:03:36.343Z,2.90
2019-01-24T19:06:06.641Z,2.90
2019-01-24T19:08:37.102Z,2.90
2019-01-24T19:11:07.149Z,2.90
2019-01-24T19:13:37.166Z,2.90
2019-01-24T19:16:07.531Z,2.90
2019-01-24T19:18:37.800Z,2.90
2019-01-24T19:21:08.247Z,2.90
2019-01-24T19:23:38.608Z,2.80
2019-01-24T19:26:08.774Z,2.90
2019-01-24T19:28:38.888Z,2.80
2019-01-24T19:31:09.420Z,2.80
2019-01-24T19:33:39.502Z,2.80
2019-01-24T19:36:10.764Z,2.80
2019-01-24T19:38:41.733Z,2.80
2019-01-24T19:41:13.928Z,2.80
2019-01-24T19:43:44.487Z,2.80
2019-01-24T19:46:18.599Z,2.80
2019-01-24T19:48:48.903Z,2.70
2019-01-24T19:51:22.231Z,2.70
2019-01-24T19:53:53.331Z,2.70
2019-01-24T19:56:23.756Z,2.70
2019-01-24T19:58:54.356Z,2.70
2019-01-24T20:01:25.436Z,2.70
2019-01-24T20:03:55.878Z,2.70
2019-01-24T20:06:27.136Z,2.70
2019-01-24T20:09:00.356Z,2.70
2019-01-24T20:11:29.207Z,2.70
2019-01-24T20:13:59.594Z,2.70
2019-01-24T20:16:29.725Z,2.60
2019-01-24T20:19:00.862Z,2.70
2019-01-24T20:21:30.917Z,2.60
2019-01-24T20:24:01.810Z,2.70
2019-01-24T20:26:32.044Z,2.70
2019-01-24T20:29:02.894Z,2.60
2019-01-24T20:31:34.204Z,2.70
2019-01-24T20:34:04.387Z,2.60
2019-01-24T20:36:34.797Z,2.60
2019-01-24T20:39:09.514Z,2.60
2019-01-24T20:41:39.703Z,2.60
2019-01-24T20:44:09.685Z,2.60
2019-01-24T20:46:39.813Z,2.60
2019-01-24T20:49:10.419Z,2.60
2019-01-24T20:51:40.509Z,2.60
2019-01-24T20:54:10.525Z,2.60
2019-01-24T20:56:40.570Z,2.50
2019-01-24T20:59:10.898Z,2.50
2019-01-24T21:01:41.884Z,2.50
2019-01-24T21:04:12.572Z,2.50
2019-01-24T21:06:42.930Z,2.50
2019-01-24T21:09:14.812Z,2.50
2019-01-24T21:11:45.307Z,2.50
2019-01-24T21:14:15.544Z,2.50
2019-01-24T21:16:45.813Z,2.50
2019-01-24T21:19:16.097Z,2.50
2019-01-24T21:21:46.246Z,2.50
2019-01-24T21:24:16.965Z,2.50
2019-01-24T21:26:48.457Z,2.50
2019-01-24T21:29:18.428Z,2.50
2019-01-24T21:31:53.582Z,2.50
2019-01-24T21:34:28.373Z,2.40
2019-01-24T21:37:05.086Z,2.50
2019-01-24T21:39:37.287Z,2.40
2019-01-24T21:42:10.903Z,2.40
2019-01-24T21:44:46.853Z,2.40
2019-01-24T21:47:20.627Z,2.40
2019-01-24T21:49:54.381Z,2.40
2019-01-24T21:52:24.746Z,2.40
2019-01-24T21:55:05.523Z,2.40
2019-01-24T21:57:35.750Z,2.40
2019-01-24T22:00:07.366Z,2.40
2019-01-24T22:02:37.670Z,2.40
2019-01-24T22:05:07.954Z,2.40
2019-01-24T22:07:38.331Z,2.40
2019-01-24T22:10:10.610Z,2.40
2019-01-24T22:12:40.779Z,2.40
2019-01-24T22:15:13.954Z,2.40
2019-01-24T22:17:43.995Z,2.40
2019-01-24T22:20:14.347Z,2.40
2019-01-24T22:22:44.272Z,2.40
2019-01-24T22:25:16.405Z,2.40
2019-01-24T22:27:46.409Z,2.40
2019-01-24T22:30:26.106Z,2.40
2019-01-24T22:32:56.082Z,2.30
2019-01-24T22:35:26.329Z,2.30
2019-01-24T22:37:56.278Z,2.30
2019-01-24T22:40:26.367Z,2.30
2019-01-24T22:42:56.695Z,2.30
2019-01-24T22:45:26.923Z,2.30
2019-01-24T22:47:56.843Z,2.20
2019-01-24T22:50:26.911Z,2.30
2019-01-24T22:52:57.197Z,2.30
2019-01-24T22:55:27.517Z,2.20
2019-01-24T22:57:57.473Z,2.30
2019-01-24T23:00:52.528Z,2.30
2019-01-24T23:03:50.815Z,2.30
2019-01-24T23:06:21.130Z,2.30
2019-01-24T23:08:51.426Z,2.30
2019-01-24T23:11:21.341Z,2.30
2019-01-24T23:13:51.262Z,2.30
2019-01-24T23:16:21.124Z,2.30
2019-01-24T23:18:51.382Z,2.30
2019-01-24T23:21:21.288Z,2.30
2019-01-24T23:23:51.331Z,2.30
2019-01-24T23:26:26.001Z,2.30
2019-01-24T23:28:56.176Z,2.30
2019-01-24T23:31:26.205Z,2.30
2019-01-24T23:33:56.044Z,2.30
2019-01-24T23:36:26.197Z,2.30
2019-01-24T23:38:56.037Z,2.30
2019-01-24T23:41:26.438Z,2.30
2019-01-24T23:43:56.546Z,2.30
2019-01-24T23:46:29.701Z,2.30
2019-01-24T23:48:59.858Z,2.30
2019-01-24T23:51:30.119Z,2.30
2019-01-24T23:54:01.583Z,2.30
2019-01-24T23:56:31.657Z,2.30
2019-01-24T23:59:01.704Z,2.30
